sensor_id;sensor_type;location;lat;lon;timestamp;pressure;altitude;pressure_sealevel;temperature;humidity
50065;BME280;35951;47.848;-122.338;2022-10-15T00:01:13;101283.03;;;17.72;100.00
50065;BME280;35951;47.848;-122.338;2022-10-15T00:03:42;101286.52;;;17.74;100.00
50065;BME280;35951;47.848;-122.338;2022-10-15T00:06:13;101286.50;;;17.76;100.00
50065;BME280;35951;47.848;-122.338;2022-10-15T00:08:43;101275.09;;;17.77;100.00
50065;BME280;35951;47.848;-122.338;2022-10-15T00:11:14;101283.42;;;17.78;100.00
50065;BME280;35951;47.848;-122.338;2022-10-15T00:13:42;101281.67;;;17.75;100.00
50065;BME280;35951;47.848;-122.338;2022-10-15T00:16:18;101278.19;;;17.73;100.00
50065;BME280;35951;47.848;-122.338;2022-10-15T00:18:47;101272.07;;;17.73;100.00
50065;BME280;35951;47.848;-122.338;2022-10-15T00:21:16;101275.56;;;17.72;100.00
50065;BME280;35951;47.848;-122.338;2022-10-15T00:23:46;101276.88;;;17.72;100.00
50065;BME280;35951;47.848;-122.338;2022-10-15T00:26:16;101262.89;;;17.70;100.00
50065;BME280;35951;47.848;-122.338;2022-10-15T00:28:46;101256.33;;;17.68;100.00
50065;BME280;35951;47.848;-122.338;2022-10-15T00:31:16;101252.43;;;17.67;100.00
50065;BME280;35951;47.848;-122.338;2022-10-15T00:33:48;101246.33;;;17.64;100.00
50065;BME280;35951;47.848;-122.338;2022-10-15T00:36:19;101246.80;;;17.61;100.00
50065;BME280;35951;47.848;-122.338;2022-10-15T00:38:48;101243.32;;;17.57;100.00
50065;BME280;35951;47.848;-122.338;2022-10-15T00:41:18;101243.79;;;17.54;100.00
50065;BME280;35951;47.848;-122.338;2022-10-15T00:51:53;101253.55;;;17.36;100.00
50065;BME280;35951;47.848;-122.338;2022-10-15T00:54:26;101251.39;;;17.33;100.00
50065;BME280;35951;47.848;-122.338;2022-10-15T00:56:56;101247.06;;;17.27;100.00
50065;BME280;35951;47.848;-122.338;2022-10-15T00:59:25;101247.98;;;17.18;100.00
50065;BME280;35951;47.848;-122.338;2022-10-15T01:01:54;101249.81;;;17.08;100.00
50065;BME280;35951;47.848;-122.338;2022-10-15T01:04:22;101252.05;;;17.03;100.00
50065;BME280;35951;47.848;-122.338;2022-10-15T01:06:49;101253.38;;;16.97;100.00
50065;BME280;35951;47.848;-122.338;2022-10-15T01:09:17;101243.80;;;16.88;100.00
50065;BME280;35951;47.848;-122.338;2022-10-15T01:17:36;101233.02;;;16.56;100.00
50065;BME280;35951;47.848;-122.338;2022-10-15T01:37:54;101266.42;;;15.92;100.00
50065;BME280;35951;47.848;-122.338;2022-10-15T01:40:35;101275.16;;;15.81;100.00
50065;BME280;35951;47.848;-122.338;2022-10-15T01:43:15;101286.92;;;15.71;100.00
50065;BME280;35951;47.848;-122.338;2022-10-15T01:46:05;101282.98;;;15.61;100.00
50065;BME280;35951;47.848;-122.338;2022-10-15T01:48:36;101279.51;;;15.51;100.00
50065;BME280;35951;47.848;-122.338;2022-10-15T01:51:05;101274.72;;;15.41;100.00
50065;BME280;35951;47.848;-122.338;2022-10-15T01:53:34;101281.27;;;15.33;100.00
50065;BME280;35951;47.848;-122.338;2022-10-15T01:56:06;101276.44;;;15.25;100.00
50065;BME280;35951;47.848;-122.338;2022-10-15T01:58:43;101290.39;;;15.20;100.00
50065;BME280;35951;47.848;-122.338;2022-10-15T02:01:08;101286.88;;;15.14;100.00
50065;BME280;35951;47.848;-122.338;2022-10-15T02:03:49;101285.99;;;15.09;100.00
50065;BME280;35951;47.848;-122.338;2022-10-15T02:06:36;101288.62;;;15.05;100.00
50065;BME280;35951;47.848;-122.338;2022-10-15T02:09:13;101286.41;;;14.98;100.00
50065;BME280;35951;47.848;-122.338;2022-10-15T02:14:25;101294.67;;;14.87;100.00
50065;BME280;35951;47.848;-122.338;2022-10-15T02:17:04;101301.63;;;14.83;100.00
50065;BME280;35951;47.848;-122.338;2022-10-15T02:22:31;101310.74;;;14.72;100.00
50065;BME280;35951;47.848;-122.338;2022-10-15T02:25:07;101311.14;;;14.66;100.00
50065;BME280;35951;47.848;-122.338;2022-10-15T02:27:37;101300.20;;;14.58;100.00
50065;BME280;35951;47.848;-122.338;2022-10-15T02:30:05;101299.73;;;14.54;100.00
50065;BME280;35951;47.848;-122.338;2022-10-15T02:32:39;101288.81;;;14.49;100.00
50065;BME280;35951;47.848;-122.338;2022-10-15T02:35:06;101293.15;;;14.45;100.00
50065;BME280;35951;47.848;-122.338;2022-10-15T02:37:36;101287.91;;;14.39;100.00
50065;BME280;35951;47.848;-122.338;2022-10-15T02:40:06;101285.25;;;14.34;100.00
50065;BME280;35951;47.848;-122.338;2022-10-15T02:42:34;101285.24;;;14.30;100.00
50065;BME280;35951;47.848;-122.338;2022-10-15T02:45:01;101286.97;;;14.26;100.00
50065;BME280;35951;47.848;-122.338;2022-10-15T02:47:29;101287.38;;;14.23;100.00
50065;BME280;35951;47.848;-122.338;2022-10-15T02:49:56;101286.06;;;14.21;100.00
50065;BME280;35951;47.848;-122.338;2022-10-15T02:52:24;101289.52;;;14.20;100.00
50065;BME280;35951;47.848;-122.338;2022-10-15T02:54:52;101291.70;;;14.17;100.00
50065;BME280;35951;47.848;-122.338;2022-10-15T02:57:19;101289.07;;;14.16;100.00
50065;BME280;35951;47.848;-122.338;2022-10-15T02:59:47;101289.52;;;14.15;100.00
50065;BME280;35951;47.848;-122.338;2022-10-15T03:02:14;101285.98;;;14.13;100.00
50065;BME280;35951;47.848;-122.338;2022-10-15T03:04:42;101280.78;;;14.12;100.00
50065;BME280;35951;47.848;-122.338;2022-10-15T03:07:09;101279.02;;;14.11;100.00
50065;BME280;35951;47.848;-122.338;2022-10-15T03:09:37;101275.06;;;14.08;100.00
50065;BME280;35951;47.848;-122.338;2022-10-15T03:12:04;101275.09;;;14.06;100.00
50065;BME280;35951;47.848;-122.338;2022-10-15T03:14:32;101266.78;;;14.04;100.00
50065;BME280;35951;47.848;-122.338;2022-10-15T03:17:00;101268.07;;;14.02;100.00
50065;BME280;35951;47.848;-122.338;2022-10-15T03:19:27;101260.66;;;14.00;100.00
50065;BME280;35951;47.848;-122.338;2022-10-15T03:21:55;101258.93;;;13.99;100.00
50065;BME280;35951;47.848;-122.338;2022-10-15T03:24:22;101262.81;;;13.96;100.00
50065;BME280;35951;47.848;-122.338;2022-10-15T03:26:50;101278.45;;;13.93;100.00
50065;BME280;35951;47.848;-122.338;2022-10-15T03:29:17;101280.20;;;13.92;100.00
50065;BME280;35951;47.848;-122.338;2022-10-15T03:31:45;101273.66;;;13.91;100.00
50065;BME280;35951;47.848;-122.338;2022-10-15T03:34:13;101277.58;;;13.91;100.00
50065;BME280;35951;47.848;-122.338;2022-10-15T03:36:40;101282.79;;;13.89;100.00
50065;BME280;35951;47.848;-122.338;2022-10-15T03:39:09;101287.15;;;13.89;100.00
50065;BME280;35951;47.848;-122.338;2022-10-15T03:41:37;101285.83;;;13.87;100.00
50065;BME280;35951;47.848;-122.338;2022-10-15T03:44:06;101294.10;;;13.87;100.00
50065;BME280;35951;47.848;-122.338;2022-10-15T03:46:33;101297.16;;;13.89;100.00
50065;BME280;35951;47.848;-122.338;2022-10-15T03:49:01;101300.63;;;13.90;100.00
50065;BME280;35951;47.848;-122.338;2022-10-15T03:51:29;101299.34;;;13.88;100.00
50065;BME280;35951;47.848;-122.338;2022-10-15T03:53:56;101302.80;;;13.87;100.00
50065;BME280;35951;47.848;-122.338;2022-10-15T03:56:24;101298.02;;;13.87;100.00
50065;BME280;35951;47.848;-122.338;2022-10-15T03:58:52;101299.75;;;13.85;100.00
50065;BME280;35951;47.848;-122.338;2022-10-15T04:01:20;101295.81;;;13.83;100.00
50065;BME280;35951;47.848;-122.338;2022-10-15T04:03:52;101306.28;;;13.85;100.00
50065;BME280;35951;47.848;-122.338;2022-10-15T04:06:20;101311.47;;;13.81;100.00
50065;BME280;35951;47.848;-122.338;2022-10-15T04:08:47;101305.79;;;13.80;100.00
50065;BME280;35951;47.848;-122.338;2022-10-15T04:11:15;101303.59;;;13.78;100.00
50065;BME280;35951;47.848;-122.338;2022-10-15T04:13:42;101305.77;;;13.76;100.00
50065;BME280;35951;47.848;-122.338;2022-10-15T04:16:10;101298.36;;;13.74;100.00
50065;BME280;35951;47.848;-122.338;2022-10-15T04:18:37;101300.09;;;13.72;100.00
50065;BME280;35951;47.848;-122.338;2022-10-15T04:21:04;101305.30;;;13.70;100.00
50065;BME280;35951;47.848;-122.338;2022-10-15T04:23:32;101310.50;;;13.69;100.00
50065;BME280;35951;47.848;-122.338;2022-10-15T04:26:00;101313.53;;;13.67;100.00
50065;BME280;35951;47.848;-122.338;2022-10-15T04:28:27;101320.91;;;13.66;100.00
50065;BME280;35951;47.848;-122.338;2022-10-15T04:30:56;101320.45;;;13.63;100.00
50065;BME280;35951;47.848;-122.338;2022-10-15T04:33:27;101325.66;;;13.61;100.00
50065;BME280;35951;47.848;-122.338;2022-10-15T04:35:59;101329.12;;;13.60;100.00
50065;BME280;35951;47.848;-122.338;2022-10-15T04:38:27;101320.41;;;13.58;100.00
50065;BME280;35951;47.848;-122.338;2022-10-15T04:41:00;101311.25;;;13.57;100.00
50065;BME280;35951;47.848;-122.338;2022-10-15T04:43:28;101302.53;;;13.55;100.00
50065;BME280;35951;47.848;-122.338;2022-10-15T04:45:57;101302.53;;;13.52;100.00
50065;BME280;35951;47.848;-122.338;2022-10-15T04:48:27;101312.95;;;13.50;100.00
50065;BME280;35951;47.848;-122.338;2022-10-15T04:51:04;101312.06;;;13.48;100.00
50065;BME280;35951;47.848;-122.338;2022-10-15T04:53:39;101310.73;;;13.47;100.00
50065;BME280;35951;47.848;-122.338;2022-10-15T04:56:10;101302.89;;;13.45;100.00
50065;BME280;35951;47.848;-122.338;2022-10-15T04:58:40;101299.39;;;13.43;100.00
50065;BME280;35951;47.848;-122.338;2022-10-15T05:01:10;101297.23;;;13.42;100.00
50065;BME280;35951;47.848;-122.338;2022-10-15T05:03:40;101294.16;;;13.41;100.00
50065;BME280;35951;47.848;-122.338;2022-10-15T05:06:11;101295.44;;;13.40;100.00
50065;BME280;35951;47.848;-122.338;2022-10-15T05:08:41;101294.14;;;13.40;100.00
50065;BME280;35951;47.848;-122.338;2022-10-15T05:11:11;101310.23;;;13.39;100.00
50065;BME280;35951;47.848;-122.338;2022-10-15T05:13:41;101318.48;;;13.37;100.00
50065;BME280;35951;47.848;-122.338;2022-10-15T05:16:16;101321.52;;;13.35;100.00
50065;BME280;35951;47.848;-122.338;2022-10-15T05:18:48;101317.14;;;13.34;100.00
50065;BME280;35951;47.848;-122.338;2022-10-15T05:21:17;101318.42;;;13.33;100.00
50065;BME280;35951;47.848;-122.338;2022-10-15T05:23:45;101318.42;;;13.33;100.00
50065;BME280;35951;47.848;-122.338;2022-10-15T05:26:14;101318.41;;;13.31;100.00
50065;BME280;35951;47.848;-122.338;2022-10-15T05:28:44;101318.86;;;13.32;100.00
50065;BME280;35951;47.848;-122.338;2022-10-15T05:31:13;101312.32;;;13.31;100.00
50065;BME280;35951;47.848;-122.338;2022-10-15T05:33:42;101313.19;;;13.31;100.00
50065;BME280;35951;47.848;-122.338;2022-10-15T05:36:18;101314.48;;;13.31;100.00
50065;BME280;35951;47.848;-122.338;2022-10-15T05:38:52;101308.41;;;13.31;100.00
50065;BME280;35951;47.848;-122.338;2022-10-15T05:41:22;101308.81;;;13.30;100.00
50065;BME280;35951;47.848;-122.338;2022-10-15T05:43:50;101317.48;;;13.29;100.00
50065;BME280;35951;47.848;-122.338;2022-10-15T05:46:18;101319.23;;;13.29;100.00
50065;BME280;35951;47.848;-122.338;2022-10-15T05:48:56;101316.59;;;13.27;100.00
50065;BME280;35951;47.848;-122.338;2022-10-15T05:51:25;101320.07;;;13.28;100.00
50065;BME280;35951;47.848;-122.338;2022-10-15T05:53:54;101320.95;;;13.27;100.00
50065;BME280;35951;47.848;-122.338;2022-10-15T05:56:22;101326.58;;;13.26;100.00
50065;BME280;35951;47.848;-122.338;2022-10-15T05:58:50;101323.54;;;13.25;100.00
50065;BME280;35951;47.848;-122.338;2022-10-15T06:01:18;101325.70;;;13.22;100.00
50065;BME280;35951;47.848;-122.338;2022-10-15T06:03:46;101323.05;;;13.19;100.00
50065;BME280;35951;47.848;-122.338;2022-10-15T06:06:16;101320.39;;;13.16;100.00
50065;BME280;35951;47.848;-122.338;2022-10-15T06:08:45;101326.02;;;13.13;100.00
50065;BME280;35951;47.848;-122.338;2022-10-15T06:11:13;101327.70;;;13.09;100.00
50065;BME280;35951;47.848;-122.338;2022-10-15T06:13:42;101325.93;;;13.05;100.00
50065;BME280;35951;47.848;-122.338;2022-10-15T06:16:13;101332.41;;;13.02;100.00
50065;BME280;35951;47.848;-122.338;2022-10-15T06:18:41;101329.33;;;12.98;100.00
50065;BME280;35951;47.848;-122.338;2022-10-15T06:21:09;101329.73;;;12.96;100.00
50065;BME280;35951;47.848;-122.338;2022-10-15T06:23:37;101327.96;;;12.92;100.00
50065;BME280;35951;47.848;-122.338;2022-10-15T06:26:07;101331.39;;;12.89;100.00
50065;BME280;35951;47.848;-122.338;2022-10-15T06:28:36;101324.39;;;12.85;100.00
50065;BME280;35951;47.848;-122.338;2022-10-15T06:31:03;101324.78;;;12.81;100.00
50065;BME280;35951;47.848;-122.338;2022-10-15T06:33:33;101323.88;;;12.78;100.00
50065;BME280;35951;47.848;-122.338;2022-10-15T06:36:03;101331.23;;;12.75;100.00
50065;BME280;35951;47.848;-122.338;2022-10-15T06:38:32;101331.19;;;12.72;100.00
50065;BME280;35951;47.848;-122.338;2022-10-15T06:41:02;101325.92;;;12.69;100.00
50065;BME280;35951;47.848;-122.338;2022-10-15T06:43:34;101333.30;;;12.66;100.00
50065;BME280;35951;47.848;-122.338;2022-10-15T06:46:03;101329.80;;;12.64;100.00
50065;BME280;35951;47.848;-122.338;2022-10-15T06:48:31;101328.47;;;12.63;100.00
50065;BME280;35951;47.848;-122.338;2022-10-15T06:51:00;101327.14;;;12.61;100.00
50065;BME280;35951;47.848;-122.338;2022-10-15T06:53:29;101324.53;;;12.61;100.00
50065;BME280;35951;47.848;-122.338;2022-10-15T06:55:57;101318.45;;;12.61;100.00
50065;BME280;35951;47.848;-122.338;2022-10-15T06:58:25;101321.48;;;12.62;100.00
50065;BME280;35951;47.848;-122.338;2022-10-15T07:03:40;101311.95;;;12.64;100.00
50065;BME280;35951;47.848;-122.338;2022-10-15T07:06:08;101314.92;;;12.57;100.00
50065;BME280;35951;47.848;-122.338;2022-10-15T07:08:36;101308.83;;;12.55;100.00
50065;BME280;35951;47.848;-122.338;2022-10-15T07:11:05;101304.89;;;12.54;100.00
50065;BME280;35951;47.848;-122.338;2022-10-15T07:13:35;101309.21;;;12.52;100.00
50065;BME280;35951;47.848;-122.338;2022-10-15T07:16:09;101311.37;;;12.52;100.00
50065;BME280;35951;47.848;-122.338;2022-10-15T07:18:39;101314.41;;;12.53;100.00
50065;BME280;35951;47.848;-122.338;2022-10-15T07:21:07;101311.81;;;12.53;100.00
50065;BME280;35951;47.848;-122.338;2022-10-15T07:23:39;101309.21;;;12.52;100.00
50065;BME280;35951;47.848;-122.338;2022-10-15T07:26:05;101304.41;;;12.51;100.00
50065;BME280;35951;47.848;-122.338;2022-10-15T07:28:33;101298.77;;;12.50;100.00
50065;BME280;35951;47.848;-122.338;2022-10-15T07:31:03;101296.18;;;12.52;100.00
50065;BME280;35951;47.848;-122.338;2022-10-15T07:33:32;101293.58;;;12.52;100.00
50065;BME280;35951;47.848;-122.338;2022-10-15T07:36:06;101283.88;;;12.41;100.00
50065;BME280;35951;47.848;-122.338;2022-10-15T07:38:35;101283.88;;;12.41;100.00
50065;BME280;35951;47.848;-122.338;2022-10-15T07:41:03;101290.94;;;12.50;100.00
50065;BME280;35951;47.848;-122.338;2022-10-15T07:43:32;101299.62;;;12.51;100.00
50065;BME280;35951;47.848;-122.338;2022-10-15T07:46:01;101295.25;;;12.49;100.00
50065;BME280;35951;47.848;-122.338;2022-10-15T07:48:30;101298.32;;;12.51;100.00
50065;BME280;35951;47.848;-122.338;2022-10-15T07:51:00;101296.59;;;12.51;100.00
50065;BME280;35951;47.848;-122.338;2022-10-15T07:53:29;101302.70;;;12.52;100.00
50065;BME280;35951;47.848;-122.338;2022-10-15T07:55:58;101290.06;;;12.51;100.00
50065;BME280;35951;47.848;-122.338;2022-10-15T07:58:31;101294.41;;;12.51;100.00
50065;BME280;35951;47.848;-122.338;2022-10-15T08:01:01;101297.86;;;12.49;100.00
50065;BME280;35951;47.848;-122.338;2022-10-15T08:03:29;101299.19;;;12.51;100.00
50065;BME280;35951;47.848;-122.338;2022-10-15T08:06:02;101297.89;;;12.51;100.00
50065;BME280;35951;47.848;-122.338;2022-10-15T08:08:32;101307.50;;;12.54;100.00
50065;BME280;35951;47.848;-122.338;2022-10-15T08:11:09;101306.17;;;12.52;100.00
50065;BME280;35951;47.848;-122.338;2022-10-15T08:13:35;101305.30;;;12.53;100.00
50065;BME280;35951;47.848;-122.338;2022-10-15T08:16:05;101302.70;;;12.52;100.00
50065;BME280;35951;47.848;-122.338;2022-10-15T08:18:35;101300.06;;;12.50;100.00
50065;BME280;35951;47.848;-122.338;2022-10-15T08:21:04;101300.04;;;12.48;100.00
50065;BME280;35951;47.848;-122.338;2022-10-15T08:23:36;101301.78;;;12.48;100.00
50065;BME280;35951;47.848;-122.338;2022-10-15T08:26:05;101300.02;;;12.47;100.00
50065;BME280;35951;47.848;-122.338;2022-10-15T08:28:34;101295.65;;;12.44;100.00
50065;BME280;35951;47.848;-122.338;2022-10-15T08:31:03;101292.12;;;12.42;100.00
50065;BME280;35951;47.848;-122.338;2022-10-15T08:33:32;101292.97;;;12.40;100.00
50065;BME280;35951;47.848;-122.338;2022-10-15T08:36:03;101292.53;;;12.40;100.00
50065;BME280;35951;47.848;-122.338;2022-10-15T08:38:32;101292.53;;;12.40;100.00
50065;BME280;35951;47.848;-122.338;2022-10-15T08:41:02;101300.81;;;12.41;100.00
50065;BME280;35951;47.848;-122.338;2022-10-15T08:43:39;101302.09;;;12.40;100.00
50065;BME280;35951;47.848;-122.338;2022-10-15T08:46:13;101305.94;;;12.37;100.00
50065;BME280;35951;47.848;-122.338;2022-10-15T08:48:49;101302.02;;;12.34;100.00
50065;BME280;35951;47.848;-122.338;2022-10-15T08:51:19;101307.64;;;12.32;100.00
50065;BME280;35951;47.848;-122.338;2022-10-15T08:53:57;101300.20;;;12.28;100.00
50065;BME280;35951;47.848;-122.338;2022-10-15T08:56:35;101301.48;;;12.26;100.00
50065;BME280;35951;47.848;-122.338;2022-10-15T09:02:07;101301.86;;;12.23;100.00
50065;BME280;35951;47.848;-122.338;2022-10-15T09:05:11;101297.92;;;12.21;100.00
50065;BME280;35951;47.848;-122.338;2022-10-15T09:07:55;101294.45;;;12.21;100.00
50065;BME280;35951;47.848;-122.338;2022-10-15T09:10:38;101294.45;;;12.21;100.00
50065;BME280;35951;47.848;-122.338;2022-10-15T09:13:17;101288.78;;;12.20;100.00
50065;BME280;35951;47.848;-122.338;2022-10-15T09:15:59;101282.70;;;12.19;100.00
50065;BME280;35951;47.848;-122.338;2022-10-15T09:18:24;101287.45;;;12.18;100.00
50065;BME280;35951;47.848;-122.338;2022-10-15T09:20:54;101285.72;;;12.17;100.00
50065;BME280;35951;47.848;-122.338;2022-10-15T09:23:25;101288.73;;;12.17;100.00
50065;BME280;35951;47.848;-122.338;2022-10-15T09:25:59;101285.28;;;12.18;100.00
50065;BME280;35951;47.848;-122.338;2022-10-15T09:28:41;101290.06;;;12.18;100.00
50065;BME280;35951;47.848;-122.338;2022-10-15T09:31:11;101290.95;;;12.19;100.00
50065;BME280;35951;47.848;-122.338;2022-10-15T09:33:45;101293.16;;;12.21;100.00
50065;BME280;35951;47.848;-122.338;2022-10-15T09:39:31;101293.14;;;12.22;100.00
50065;BME280;35951;47.848;-122.338;2022-10-15T09:44:44;101300.53;;;12.21;100.00
50065;BME280;35951;47.848;-122.338;2022-10-15T09:47:33;101303.56;;;12.22;100.00
50065;BME280;35951;47.848;-122.338;2022-10-15T09:50:03;101307.91;;;12.22;100.00
50065;BME280;35951;47.848;-122.338;2022-10-15T10:01:23;101307.45;;;12.19;100.00
50065;BME280;35951;47.848;-122.338;2022-10-15T10:04:17;101305.66;;;12.17;100.00
50065;BME280;35951;47.848;-122.338;2022-10-15T10:06:54;101299.16;;;12.15;100.00
50065;BME280;35951;47.848;-122.338;2022-10-15T10:09:38;101306.94;;;12.14;100.00
50065;BME280;35951;47.848;-122.338;2022-10-15T10:12:24;101304.31;;;12.12;100.00
50065;BME280;35951;47.848;-122.338;2022-10-15T10:14:54;101303.44;;;12.12;100.00
50065;BME280;35951;47.848;-122.338;2022-10-15T10:17:28;101299.53;;;12.12;100.00
50065;BME280;35951;47.848;-122.338;2022-10-15T10:20:17;101302.11;;;12.10;100.00
50065;BME280;35951;47.848;-122.338;2022-10-15T10:22:58;101297.74;;;12.09;100.00
50065;BME280;35951;47.848;-122.338;2022-10-15T10:28:11;101307.72;;;12.09;100.00
50065;BME280;35951;47.848;-122.338;2022-10-15T10:30:42;101301.67;;;12.10;100.00
50065;BME280;35951;47.848;-122.338;2022-10-15T10:33:20;101299.07;;;12.10;100.00
50065;BME280;35951;47.848;-122.338;2022-10-15T10:35:49;101300.41;;;12.12;100.00
50065;BME280;35951;47.848;-122.338;2022-10-15T10:38:24;101302.14;;;12.12;100.00
50065;BME280;35951;47.848;-122.338;2022-10-15T10:41:01;101301.70;;;12.12;100.00
50065;BME280;35951;47.848;-122.338;2022-10-15T10:43:38;101293.86;;;12.10;100.00
50065;BME280;35951;47.848;-122.338;2022-10-15T10:46:15;101291.23;;;12.09;100.00
50065;BME280;35951;47.848;-122.338;2022-10-15T10:48:49;101292.09;;;12.09;100.00
50065;BME280;35951;47.848;-122.338;2022-10-15T10:51:23;101283.44;;;12.10;100.00
50065;BME280;35951;47.848;-122.338;2022-10-15T10:54:03;101286.02;;;12.09;100.00
50065;BME280;35951;47.848;-122.338;2022-10-15T10:56:41;101282.98;;;12.08;100.00
50065;BME280;35951;47.848;-122.338;2022-10-15T10:59:38;101283.85;;;12.08;100.00
50065;BME280;35951;47.848;-122.338;2022-10-15T11:02:16;101292.09;;;12.09;100.00
50065;BME280;35951;47.848;-122.338;2022-10-15T11:04:44;101293.40;;;12.09;100.00
50065;BME280;35951;47.848;-122.338;2022-10-15T11:07:17;101293.00;;;12.10;100.00
50065;BME280;35951;47.848;-122.338;2022-10-15T11:10:07;101293.84;;;12.09;100.00
50065;BME280;35951;47.848;-122.338;2022-10-15T11:12:41;101293.00;;;12.10;100.00
50065;BME280;35951;47.848;-122.338;2022-10-15T11:21:16;101283.91;;;12.13;100.00
50065;BME280;35951;47.848;-122.338;2022-10-15T11:23:56;101285.23;;;12.15;100.00
50065;BME280;35951;47.848;-122.338;2022-10-15T11:26:30;101283.53;;;12.15;100.00
50065;BME280;35951;47.848;-122.338;2022-10-15T11:29:25;101286.12;;;12.17;100.00
50065;BME280;35951;47.848;-122.338;2022-10-15T11:35:05;101281.81;;;12.17;100.00
50065;BME280;35951;47.848;-122.338;2022-10-15T11:37:52;101291.41;;;12.21;100.00
50065;BME280;35951;47.848;-122.338;2022-10-15T11:43:41;101290.55;;;12.22;100.00
50065;BME280;35951;47.848;-122.338;2022-10-15T11:49:37;101292.74;;;12.23;100.00
50065;BME280;35951;47.848;-122.338;2022-10-15T11:52:34;101303.56;;;12.22;100.00
50065;BME280;35951;47.848;-122.338;2022-10-15T11:57:45;101307.45;;;12.19;100.00
50065;BME280;35951;47.848;-122.338;2022-10-15T12:00:28;101310.88;;;12.17;100.00
50065;BME280;35951;47.848;-122.338;2022-10-15T12:03:11;101308.70;;;12.16;100.00
50065;BME280;35951;47.848;-122.338;2022-10-15T12:05:45;101316.48;;;12.15;100.00
50065;BME280;35951;47.848;-122.338;2022-10-15T12:08:16;101317.79;;;12.15;100.00
50065;BME280;35951;47.848;-122.338;2022-10-15T12:10:52;101319.09;;;12.15;100.00
50065;BME280;35951;47.848;-122.338;2022-10-15T12:19:18;101306.05;;;12.12;100.00
50065;BME280;35951;47.848;-122.338;2022-10-15T12:27:23;101310.77;;;12.09;100.00
50065;BME280;35951;47.848;-122.338;2022-10-15T12:32:44;101325.55;;;12.10;100.00
50065;BME280;35951;47.848;-122.338;2022-10-15T12:37:47;101335.95;;;12.08;100.00
50065;BME280;35951;47.848;-122.338;2022-10-15T12:40:24;101338.55;;;12.08;100.00
50065;BME280;35951;47.848;-122.338;2022-10-15T12:42:56;101338.98;;;12.08;100.00
50065;BME280;35951;47.848;-122.338;2022-10-15T12:45:37;101340.28;;;12.08;100.00
50065;BME280;35951;47.848;-122.338;2022-10-15T12:50:44;101342.89;;;12.09;100.00
50065;BME280;35951;47.848;-122.338;2022-10-15T12:53:29;101343.76;;;12.08;100.00
50065;BME280;35951;47.848;-122.338;2022-10-15T12:58:55;101337.68;;;12.08;100.00
50065;BME280;35951;47.848;-122.338;2022-10-15T13:01:28;101336.35;;;12.06;100.00
50065;BME280;35951;47.848;-122.338;2022-10-15T13:03:58;101332.47;;;12.08;100.00
50065;BME280;35951;47.848;-122.338;2022-10-15T13:06:34;101336.35;;;12.06;100.00
50065;BME280;35951;47.848;-122.338;2022-10-15T13:09:28;101334.59;;;12.05;100.00
50065;BME280;35951;47.848;-122.338;2022-10-15T13:11:55;101337.19;;;12.05;100.00
50065;BME280;35951;47.848;-122.338;2022-10-15T13:17:21;101328.48;;;12.03;100.00
50065;BME280;35951;47.848;-122.338;2022-10-15T13:20:06;101332.39;;;12.03;100.00
50065;BME280;35951;47.848;-122.338;2022-10-15T13:22:36;101339.73;;;12.02;100.00
50065;BME280;35951;47.848;-122.338;2022-10-15T13:25:13;101339.30;;;12.01;100.00
50065;BME280;35951;47.848;-122.338;2022-10-15T13:27:42;101337.53;;;12.00;100.00
50065;BME280;35951;47.848;-122.338;2022-10-15T13:30:14;101339.27;;;12.00;100.00
50065;BME280;35951;47.848;-122.338;2022-10-15T13:32:45;101331.87;;;11.98;100.00
50065;BME280;35951;47.848;-122.338;2022-10-15T13:35:20;101327.50;;;11.97;100.00
50065;BME280;35951;47.848;-122.338;2022-10-15T13:37:55;101337.02;;;11.95;100.00
50065;BME280;35951;47.848;-122.338;2022-10-15T13:40:28;101336.98;;;11.93;100.00
50065;BME280;35951;47.848;-122.338;2022-10-15T13:43:18;101338.29;;;11.92;100.00
50065;BME280;35951;47.848;-122.338;2022-10-15T13:45:55;101336.89;;;11.88;100.00
50065;BME280;35951;47.848;-122.338;2022-10-15T13:48:26;101337.33;;;11.88;100.00
50065;BME280;35951;47.848;-122.338;2022-10-15T13:51:03;101340.30;;;11.86;100.00
50065;BME280;35951;47.848;-122.338;2022-10-15T13:56:28;101340.72;;;11.84;100.00
50065;BME280;35951;47.848;-122.338;2022-10-15T13:58:44;101336.77;;;11.82;100.00
50065;BME280;35951;47.848;-122.338;2022-10-15T14:01:17;101334.17;;;11.81;100.00
50065;BME280;35951;47.848;-122.338;2022-10-15T14:03:49;101334.14;;;11.79;100.00
50065;BME280;35951;47.848;-122.338;2022-10-15T14:06:23;101335.84;;;11.79;100.00
50065;BME280;35951;47.848;-122.338;2022-10-15T14:08:55;101339.32;;;11.78;100.00
50065;BME280;35951;47.848;-122.338;2022-10-15T14:11:25;101337.98;;;11.76;100.00
50065;BME280;35951;47.848;-122.338;2022-10-15T14:13:56;101341.86;;;11.75;100.00
50065;BME280;35951;47.848;-122.338;2022-10-15T14:19:09;101345.73;;;11.73;100.00
50065;BME280;35951;47.848;-122.338;2022-10-15T14:21:41;101347.04;;;11.71;100.00
50065;BME280;35951;47.848;-122.338;2022-10-15T14:24:19;101344.38;;;11.68;100.00